createdAt,value
2022-09-11T00:00:19.810Z,30.5
2022-09-11T00:01:22.030Z,30.6
2022-09-11T00:02:24.632Z,30.6
2022-09-11T00:03:27.397Z,30.4
2022-09-11T00:04:29.871Z,30.4
2022-09-11T00:05:32.339Z,30.2
2022-09-11T00:06:34.866Z,30.4
2022-09-11T00:07:37.348Z,30.4
2022-09-11T00:08:39.846Z,30.6
2022-09-11T00:09:42.322Z,30.2
2022-09-11T00:10:44.811Z,30.5
2022-09-11T00:11:47.334Z,30.7
2022-09-11T00:12:50.550Z,30.2
2022-09-11T00:13:52.769Z,30.6
2022-09-11T00:14:55.258Z,30.4
2022-09-11T00:15:57.736Z,30.6
2022-09-11T00:17:00.187Z,30.4
2022-09-11T00:18:02.130Z,30.6
2022-09-11T00:19:04.660Z,30.5
2022-09-11T00:20:07.159Z,30.2
2022-09-11T00:21:09.374Z,30.5
2022-09-11T00:22:11.574Z,30.5
2022-09-11T00:23:14.049Z,30.6
2022-09-11T00:24:16.269Z,30.6
2022-09-11T00:25:18.753Z,30.7
2022-09-11T00:26:21.233Z,30.5
2022-09-11T00:27:23.742Z,30.4
2022-09-11T00:28:26.218Z,30.5
2022-09-11T00:29:28.693Z,30.4
2022-09-11T00:30:31.164Z,30.7
2022-09-11T00:31:33.683Z,30.6
2022-09-11T00:32:36.512Z,30.4
2022-09-11T00:33:38.712Z,30.5
2022-09-11T00:34:41.500Z,30.5
2022-09-11T00:35:43.698Z,30.5
2022-09-11T00:36:45.656Z,30.9
2022-09-11T00:37:48.129Z,30.5
2022-09-11T00:38:50.304Z,30.7
2022-09-11T00:39:52.836Z,30.6
2022-09-11T00:40:55.653Z,30.8
2022-09-11T00:41:57.837Z,30.8
2022-09-11T00:43:00.349Z,30.6
2022-09-11T00:44:02.827Z,30.5
2022-09-11T00:45:05.308Z,30.6
2022-09-11T00:46:07.550Z,30.5
2022-09-11T00:47:10.292Z,30.7
2022-09-11T00:48:12.790Z,30.6
2022-09-11T00:49:15.314Z,30.4
2022-09-11T00:50:19.412Z,30.6
2022-09-11T00:51:21.424Z,30.8
2022-09-11T00:52:23.897Z,30.7
2022-09-11T00:53:25.830Z,30.4
2022-09-11T00:54:28.302Z,30.6
2022-09-11T00:55:30.812Z,30.7
2022-09-11T00:56:33.282Z,30.6
2022-09-11T00:57:35.483Z,30.6
2022-09-11T00:58:37.709Z,30.6
2022-09-11T00:59:40.209Z,30.8
2022-09-11T01:00:42.418Z,30.5
2022-09-11T01:01:45.080Z,30.7
2022-09-11T01:02:47.825Z,30.5
2022-09-11T01:03:50.322Z,30.8
2022-09-11T01:04:52.787Z,30.7
2022-09-11T01:05:55.303Z,30.8
2022-09-11T01:06:57.764Z,30.7
2022-09-11T01:07:59.974Z,30.9
2022-09-11T01:09:02.446Z,30.7
2022-09-11T01:10:04.652Z,30.8
2022-09-11T01:11:07.151Z,30.8
2022-09-11T01:12:09.626Z,30.7
2022-09-11T01:13:12.102Z,30.8
2022-09-11T01:14:14.323Z,30.7
2022-09-11T01:15:16.802Z,30.6
2022-09-11T01:16:19.059Z,30.6
2022-09-11T01:17:21.491Z,30.6
2022-09-11T01:18:23.680Z,30.5
2022-09-11T01:19:26.186Z,30.7
2022-09-11T01:20:28.654Z,31
2022-09-11T01:21:34.341Z,30.9
2022-09-11T01:22:35.861Z,30.8
2022-09-11T01:23:38.378Z,30.8
2022-09-11T01:24:41.051Z,30.6
2022-09-11T01:25:42.693Z,30.8
2022-09-11T01:26:45.190Z,30.6
2022-09-11T01:27:47.660Z,30.8
2022-09-11T01:28:50.139Z,30.9
2022-09-11T01:29:52.103Z,30.7
2022-09-11T01:30:54.297Z,30.9
2022-09-11T01:31:56.194Z,30.8
2022-09-11T01:32:58.115Z,30.9
2022-09-11T01:34:00.578Z,30.9
2022-09-11T01:35:02.811Z,30.7
2022-09-11T01:36:05.313Z,30.8
2022-09-11T01:37:07.838Z,30.8
2022-09-11T01:38:09.742Z,30.9
2022-09-11T01:39:11.952Z,30.6
2022-09-11T01:40:14.463Z,30.9
2022-09-11T01:41:16.754Z,30.9
2022-09-11T01:42:19.258Z,30.9
2022-09-11T01:43:21.170Z,30.8
2022-09-11T01:44:23.648Z,31
2022-09-11T01:45:26.178Z,30.7
2022-09-11T01:46:28.622Z,30.7
2022-09-11T01:47:30.805Z,30.9
2022-09-11T01:48:33.003Z,30.9
2022-09-11T01:49:35.470Z,30.9
2022-09-11T01:50:37.966Z,31
2022-09-11T01:51:40.445Z,30.9
2022-09-11T01:52:42.960Z,30.8
2022-09-11T01:53:49.831Z,30.8
2022-09-11T01:54:50.461Z,30.7
2022-09-11T01:55:52.929Z,30.7
2022-09-11T01:56:55.410Z,30.8
2022-09-11T01:57:57.626Z,30.8
2022-09-11T01:58:59.828Z,31
2022-09-11T02:00:01.739Z,30.8
2022-09-11T02:01:03.962Z,31
2022-09-11T02:02:05.872Z,31.1
2022-09-11T02:03:08.033Z,31
2022-09-11T02:04:10.203Z,30.7
2022-09-11T02:05:12.145Z,30.9
2022-09-11T02:06:14.352Z,30.9
2022-09-11T02:07:16.258Z,30.9
2022-09-11T02:08:18.821Z,30.9
2022-09-11T02:09:21.297Z,31
2022-09-11T02:10:23.787Z,30.7
2022-09-11T02:11:25.985Z,30.9
2022-09-11T02:12:28.462Z,30.9
2022-09-11T02:13:30.961Z,30.7
2022-09-11T02:14:33.424Z,30.8
2022-09-11T02:15:35.621Z,31
2022-09-11T02:16:38.202Z,31
2022-09-11T02:17:40.846Z,30.8
2022-09-11T02:18:43.030Z,30.8
2022-09-11T02:19:45.538Z,30.9
2022-09-11T02:20:48.063Z,31.1
2022-09-11T02:21:50.552Z,31.1
2022-09-11T02:22:52.776Z,31
2022-09-11T02:23:55.292Z,30.9
2022-09-11T02:24:57.950Z,30.8
2022-09-11T02:26:00.433Z,31.1
2022-09-11T02:27:02.911Z,31.1
2022-09-11T02:28:05.110Z,31.1
2022-09-11T02:29:07.324Z,30.8
2022-09-11T02:30:09.526Z,31.1
2022-09-11T02:31:12.030Z,30.9
2022-09-11T02:32:14.597Z,30.9
2022-09-11T02:33:16.797Z,31
2022-09-11T02:34:18.999Z,31.1
2022-09-11T02:35:21.466Z,30.9
2022-09-11T02:36:23.657Z,30.8
2022-09-11T02:37:25.852Z,30.9
2022-09-11T02:38:28.326Z,30.9
2022-09-11T02:39:30.837Z,30.9
2022-09-11T02:40:33.306Z,30.9
2022-09-11T02:41:35.494Z,31
2022-09-11T02:42:37.426Z,30.8
2022-09-11T02:43:39.622Z,31.1
2022-09-11T02:44:42.410Z,31
2022-09-11T02:45:44.925Z,31
2022-09-11T02:46:47.070Z,31.2
2022-09-11T02:47:49.589Z,31
2022-09-11T02:48:52.057Z,31.3
2022-09-11T02:49:53.978Z,31.2
2022-09-11T02:50:56.173Z,30.9
2022-09-11T02:51:58.073Z,31.1
2022-09-11T02:53:00.263Z,31
2022-09-11T02:54:02.444Z,31
2022-09-11T02:55:04.420Z,31.2
2022-09-11T02:56:06.883Z,31.1
2022-09-11T02:57:09.072Z,30.8
2022-09-11T02:58:11.546Z,30.8
2022-09-11T02:59:14.008Z,31
2022-09-11T03:00:15.945Z,31.1
2022-09-11T03:01:18.159Z,30.9
2022-09-11T03:02:20.415Z,30.9
2022-09-11T03:03:23.116Z,30.9
2022-09-11T03:04:25.590Z,31
2022-09-11T03:05:27.787Z,30.8
2022-09-11T03:06:30.273Z,30.9
2022-09-11T03:07:32.744Z,31
2022-09-11T03:08:35.239Z,30.9
2022-09-11T03:09:37.435Z,30.9
2022-09-11T03:10:39.968Z,30.8
2022-09-11T03:11:42.425Z,30.9
2022-09-11T03:12:45.917Z,30.8
2022-09-11T03:13:48.381Z,30.8
2022-09-11T03:14:50.592Z,30.5
2022-09-11T03:15:53.071Z,30.7
2022-09-11T03:16:55.732Z,30.6
2022-09-11T03:17:58.196Z,31
2022-09-11T03:19:00.427Z,30.6
2022-09-11T03:20:02.900Z,30.6
2022-09-11T03:21:05.392Z,30.6
2022-09-11T03:22:07.864Z,30.7
2022-09-11T03:23:10.335Z,30.7
2022-09-11T03:24:12.540Z,30.7
2022-09-11T03:25:14.753Z,30.5
2022-09-11T03:26:16.993Z,30.3
2022-09-11T03:27:19.186Z,30.6
2022-09-11T03:28:21.655Z,30.5
2022-09-11T03:29:23.856Z,30.6
2022-09-11T03:30:26.026Z,30.7
2022-09-11T03:31:28.534Z,30.5
2022-09-11T03:32:30.995Z,30.2
2022-09-11T03:33:33.627Z,30.5
2022-09-11T03:34:35.887Z,30.4
2022-09-11T03:35:38.065Z,30.5
2022-09-11T03:36:39.993Z,30.4
2022-09-11T03:37:42.202Z,30.7
2022-09-11T03:38:44.669Z,30.5
2022-09-11T03:39:47.177Z,30.2
2022-09-11T03:40:49.650Z,30.4
2022-09-11T03:41:51.888Z,30.4
2022-09-11T03:42:54.092Z,30.5
2022-09-11T03:43:56.565Z,30.5
2022-09-11T03:44:58.773Z,30.4
2022-09-11T03:46:00.768Z,30.4
2022-09-11T03:47:03.282Z,30.4
2022-09-11T03:48:05.209Z,30.6
2022-09-11T03:49:07.685Z,30.5
2022-09-11T03:50:10.184Z,30.5
2022-09-11T03:51:12.656Z,30.3
2022-09-11T03:52:14.850Z,30.4
2022-09-11T03:53:17.053Z,30.4
2022-09-11T03:54:19.517Z,30.4
2022-09-11T03:55:22.013Z,30.3
2022-09-11T03:56:24.480Z,30.4
2022-09-11T03:57:26.722Z,30.4
2022-09-11T03:58:29.178Z,30.3
2022-09-11T03:59:31.654Z,30.2
2022-09-11T04:00:33.554Z,30.2
2022-09-11T04:01:36.043Z,30.2
2022-09-11T04:02:38.401Z,30.5
2022-09-11T04:03:40.362Z,30.3
2022-09-11T04:04:43.713Z,30.5
2022-09-11T04:05:46.208Z,30.4
2022-09-11T04:06:48.671Z,30.2
2022-09-11T04:07:50.852Z,30.1
2022-09-11T04:08:53.321Z,30.3
2022-09-11T04:09:55.807Z,30.4
2022-09-11T04:10:58.290Z,30.4
2022-09-11T04:12:00.219Z,30.4
2022-09-11T04:13:02.737Z,30.2
2022-09-11T04:14:04.930Z,30.2
2022-09-11T04:15:07.112Z,30.2
2022-09-11T04:16:09.625Z,30.3
2022-09-11T04:17:11.990Z,30.3
2022-09-11T04:18:14.218Z,30.2
2022-09-11T04:19:16.416Z,30.2
2022-09-11T04:20:18.613Z,30.3
2022-09-11T04:21:21.110Z,30.2
2022-09-11T04:22:23.586Z,30.2
2022-09-11T04:23:25.796Z,30.4
2022-09-11T04:24:28.273Z,30.1
2022-09-11T04:25:30.738Z,30.3
2022-09-11T04:26:32.949Z,30.2
2022-09-11T04:27:34.867Z,30.1
2022-09-11T04:28:36.827Z,30.1
2022-09-11T04:29:38.745Z,30
2022-09-11T04:30:41.218Z,30.2
2022-09-11T04:31:43.756Z,30.1
2022-09-11T04:32:46.234Z,30.2
2022-09-11T04:33:48.445Z,30.1
2022-09-11T04:34:50.914Z,30.2
2022-09-11T04:35:53.385Z,30
2022-09-11T04:36:55.875Z,30.1
2022-09-11T04:37:57.795Z,30.2
2022-09-11T04:39:00.264Z,30
2022-09-11T04:40:01.965Z,30.1
2022-09-11T04:41:04.828Z,30.1
2022-09-11T04:42:07.320Z,30.2
2022-09-11T04:43:09.786Z,30.2
2022-09-11T04:44:12.302Z,30.2
2022-09-11T04:45:14.224Z,30.1
2022-09-11T04:46:16.705Z,30.3
2022-09-11T04:47:18.882Z,30.2
2022-09-11T04:48:21.363Z,30.1
2022-09-11T04:49:23.845Z,30.2
2022-09-11T04:50:26.313Z,30.2
2022-09-11T04:51:29.218Z,30
2022-09-11T04:52:31.799Z,30.1
2022-09-11T04:53:34.263Z,30.3
2022-09-11T04:54:36.731Z,30.1
2022-09-11T04:55:38.925Z,30.3
2022-09-11T04:56:41.412Z,30.2
2022-09-11T04:57:43.617Z,30.1
2022-09-11T04:58:46.087Z,30.4
2022-09-11T04:59:48.607Z,30.4
2022-09-11T05:00:50.816Z,30.2
2022-09-11T05:01:53.673Z,30.1
2022-09-11T05:02:56.347Z,30.3
2022-09-11T05:03:57.963Z,30.1
2022-09-11T05:05:00.454Z,30.3
2022-09-11T05:06:02.919Z,30.2
2022-09-11T05:07:05.099Z,30.2
2022-09-11T05:08:07.319Z,30
2022-09-11T05:09:09.522Z,30.2
2022-09-11T05:10:12.009Z,30.3
2022-09-11T05:11:14.480Z,30.1
2022-09-11T05:12:16.679Z,30.1
2022-09-11T05:13:19.226Z,30
2022-09-11T05:14:21.711Z,30.2
2022-09-11T05:15:23.953Z,30.1
2022-09-11T05:16:26.454Z,30
2022-09-11T05:17:29.222Z,30
2022-09-11T05:18:31.697Z,30.2
2022-09-11T05:19:33.893Z,30.2
2022-09-11T05:20:36.386Z,30
2022-09-11T05:21:38.865Z,29.9
2022-09-11T05:22:41.353Z,30.3
2022-09-11T05:23:44.067Z,29.9
2022-09-11T05:24:46.598Z,30
2022-09-11T05:25:48.944Z,30
2022-09-11T05:26:51.239Z,29.9
2022-09-11T05:27:53.475Z,30.1
2022-09-11T05:28:55.975Z,30
2022-09-11T05:29:58.166Z,30.2
2022-09-11T05:31:00.410Z,30
2022-09-11T05:32:02.877Z,30.1
2022-09-11T05:33:05.355Z,30
2022-09-11T05:34:07.257Z,30
2022-09-11T05:35:09.464Z,30.1
2022-09-11T05:36:11.963Z,30.2
2022-09-11T05:37:14.162Z,30.1
2022-09-11T05:38:16.351Z,30.1
2022-09-11T05:39:18.595Z,30
2022-09-11T05:40:20.521Z,30.1
2022-09-11T05:41:22.726Z,30.1
2022-09-11T05:42:24.355Z,30
2022-09-11T05:43:26.831Z,29.9
2022-09-11T05:44:29.042Z,30.2
2022-09-11T05:45:31.011Z,30.1
2022-09-11T05:46:33.624Z,30.1
2022-09-11T05:47:36.093Z,29.9
2022-09-11T05:48:38.040Z,30.1
2022-09-11T05:49:40.251Z,30
2022-09-11T05:50:42.439Z,30.1
2022-09-11T05:51:44.943Z,30.1
2022-09-11T05:52:47.139Z,30
2022-09-11T05:53:49.668Z,30.1
2022-09-11T05:54:52.172Z,30.1
2022-09-11T05:55:54.637Z,30
2022-09-11T05:56:56.838Z,30
2022-09-11T05:57:59.319Z,30.1
2022-09-11T05:59:01.798Z,30.1
2022-09-11T06:00:04.023Z,30.2
2022-09-11T06:01:06.564Z,30
2022-09-11T06:02:09.069Z,29.9
2022-09-11T06:03:15.359Z,30.3
2022-09-11T06:04:16.503Z,30.2
2022-09-11T06:05:18.987Z,30
2022-09-11T06:06:21.218Z,30
2022-09-11T06:07:23.711Z,30.1
2022-09-11T06:08:26.184Z,30
2022-09-11T06:09:27.564Z,30.1
2022-09-11T06:10:30.052Z,30.1
2022-09-11T06:11:32.527Z,30
2022-09-11T06:12:34.736Z,30
2022-09-11T06:13:36.936Z,30
2022-09-11T06:14:39.663Z,29.9
2022-09-11T06:15:46.379Z,30
2022-09-11T06:16:47.209Z,30
2022-09-11T06:17:49.424Z,30
2022-09-11T06:18:51.616Z,30
2022-09-11T06:19:53.522Z,30
2022-09-11T06:20:55.989Z,30
2022-09-11T06:21:58.185Z,29.9
2022-09-11T06:23:00.419Z,30.1
2022-09-11T06:24:08.782Z,30
2022-09-11T06:25:10.977Z,30
2022-09-11T06:26:13.465Z,29.9
2022-09-11T06:27:15.929Z,30.1
2022-09-11T06:28:17.840Z,29.9
2022-09-11T06:29:20.311Z,29.9
2022-09-11T06:30:22.833Z,30
2022-09-11T06:31:25.597Z,29.9
2022-09-11T06:32:27.778Z,30
2022-09-11T06:33:30.284Z,29.8
2022-09-11T06:34:32.755Z,29.9
2022-09-11T06:35:34.685Z,30
2022-09-11T06:36:37.162Z,30
2022-09-11T06:37:39.378Z,29.6
2022-09-11T06:38:41.599Z,29.9
2022-09-11T06:39:44.123Z,29.8
2022-09-11T06:40:46.861Z,29.9
2022-09-11T06:41:48.798Z,29.8
2022-09-11T06:42:51.009Z,29.9
2022-09-11T06:43:53.482Z,29.9
2022-09-11T06:44:55.678Z,29.7
2022-09-11T06:45:57.623Z,29.9
2022-09-11T06:47:00.227Z,29.8
2022-09-11T06:48:02.725Z,29.8
2022-09-11T06:49:05.187Z,30
2022-09-11T06:50:07.468Z,29.7
2022-09-11T06:51:09.718Z,29.9
2022-09-11T06:52:12.221Z,29.6
2022-09-11T06:53:14.701Z,29.9
2022-09-11T06:54:17.209Z,29.8
2022-09-11T06:55:19.693Z,29.8
2022-09-11T06:56:22.203Z,29.8
2022-09-11T06:57:24.754Z,29.8
2022-09-11T06:58:27.223Z,29.7
2022-09-11T06:59:29.704Z,29.7
2022-09-11T07:00:31.885Z,29.8
2022-09-11T07:01:34.436Z,29.7
2022-09-11T07:02:37.419Z,29.8
2022-09-11T07:03:39.631Z,29.8
2022-09-11T07:04:42.215Z,29.9
2022-09-11T07:05:44.694Z,29.8
2022-09-11T07:06:47.164Z,29.7
2022-09-11T07:07:49.075Z,29.6
2022-09-11T07:08:51.272Z,29.9
2022-09-11T07:09:53.796Z,29.7
2022-09-11T07:10:56.265Z,29.7
2022-09-11T07:11:58.458Z,29.7
2022-09-11T07:13:00.944Z,29.8
2022-09-11T07:14:03.424Z,29.6
2022-09-11T07:15:05.598Z,29.6
2022-09-11T07:16:08.167Z,29.7
2022-09-11T07:17:10.997Z,29.4
2022-09-11T07:18:13.299Z,29.9
2022-09-11T07:19:15.771Z,29.9
2022-09-11T07:20:18.295Z,29.7
2022-09-11T07:21:20.763Z,29.8
2022-09-11T07:22:22.968Z,29.7
2022-09-11T07:23:25.446Z,29.8
2022-09-11T07:24:27.919Z,29.7
2022-09-11T07:25:30.415Z,29.7
2022-09-11T07:26:32.895Z,29.4
2022-09-11T07:27:35.069Z,29.8
2022-09-11T07:28:37.568Z,29.7
2022-09-11T07:29:39.773Z,29.7
2022-09-11T07:30:42.322Z,29.8
2022-09-11T07:31:45.079Z,29.9
2022-09-11T07:32:47.321Z,29.7
2022-09-11T07:33:49.567Z,29.8
2022-09-11T07:34:51.468Z,29.9
2022-09-11T07:35:54.022Z,29.9
2022-09-11T07:36:56.529Z,29.7
2022-09-11T07:37:59.057Z,29.6
2022-09-11T07:39:01.287Z,29.7
2022-09-11T07:40:03.856Z,29.8
2022-09-11T07:41:06.777Z,29.8
2022-09-11T07:42:09.276Z,29.8
2022-09-11T07:43:11.775Z,29.8
2022-09-11T07:44:14.311Z,29.9
2022-09-11T07:45:19.769Z,29.6
2022-09-11T07:46:21.786Z,29.8
2022-09-11T07:47:23.712Z,29.7
2022-09-11T07:48:26.187Z,29.9
2022-09-11T07:49:28.675Z,29.9
2022-09-11T07:50:30.894Z,29.8
2022-09-11T07:51:33.416Z,29.8
2022-09-11T07:52:35.880Z,29.9
2022-09-11T07:53:38.361Z,29.8
2022-09-11T07:54:40.914Z,29.7
2022-09-11T07:55:42.820Z,29.8
2022-09-11T07:56:45.042Z,29.7
2022-09-11T07:57:47.512Z,29.8
2022-09-11T07:58:49.714Z,29.8
2022-09-11T07:59:51.687Z,30
2022-09-11T08:00:53.648Z,29.9
2022-09-11T08:01:56.463Z,30
2022-09-11T08:02:59.280Z,29.8
2022-09-11T08:04:01.746Z,29.8
2022-09-11T08:05:03.951Z,29.7
2022-09-11T08:06:05.926Z,29.9
2022-09-11T08:07:08.466Z,29.8
2022-09-11T08:08:10.928Z,29.8
2022-09-11T08:09:13.141Z,29.7
2022-09-11T08:10:27.075Z,29.9
2022-09-11T08:11:20.629Z,30
2022-09-11T08:12:22.858Z,29.8
2022-09-11T08:13:25.332Z,29.8
2022-09-11T08:14:27.817Z,29.8
2022-09-11T08:15:30.042Z,29.9
2022-09-11T08:16:32.538Z,29.7
2022-09-11T08:17:35.220Z,29.7
2022-09-11T08:18:37.737Z,29.8
2022-09-11T08:19:40.211Z,29.8
2022-09-11T08:20:42.423Z,29.9
2022-09-11T08:21:44.901Z,29.7
2022-09-11T08:22:47.159Z,29.8
2022-09-11T08:23:49.641Z,29.8
2022-09-11T08:24:51.568Z,29.7
2022-09-11T08:25:53.787Z,29.7
2022-09-11T08:26:55.964Z,29.8
2022-09-11T08:27:58.467Z,30
2022-09-11T08:29:00.937Z,29.9
2022-09-11T08:30:03.447Z,29.8
2022-09-11T08:31:05.743Z,29.8
2022-09-11T08:32:08.743Z,29.9
2022-09-11T08:33:11.245Z,29.8
2022-09-11T08:34:13.734Z,29.7
2022-09-11T08:35:15.354Z,29.6
2022-09-11T08:36:17.591Z,29.8
2022-09-11T08:37:19.521Z,29.7
2022-09-11T08:38:22.055Z,29.9
2022-09-11T08:39:24.251Z,29.9
2022-09-11T08:40:26.488Z,29.7
2022-09-11T08:41:28.407Z,29.7
2022-09-11T08:42:30.888Z,29.9
2022-09-11T08:43:33.408Z,29.9
2022-09-11T08:44:39.031Z,29.7
2022-09-11T08:45:41.009Z,29.9
2022-09-11T08:46:43.456Z,29.9
2022-09-11T08:47:45.662Z,29.8
2022-09-11T08:48:48.145Z,29.8
2022-09-11T08:49:50.640Z,29.7
2022-09-11T08:50:53.118Z,29.6
2022-09-11T08:51:55.373Z,29.8
2022-09-11T08:52:57.554Z,29.9
2022-09-11T08:53:59.823Z,29.8
2022-09-11T08:55:02.018Z,29.8
2022-09-11T08:56:04.218Z,29.9
2022-09-11T08:57:06.119Z,29.8
2022-09-11T08:58:08.315Z,29.6
2022-09-11T08:59:10.238Z,29.8
2022-09-11T09:00:12.718Z,30
2022-09-11T09:01:15.236Z,29.9
2022-09-11T09:02:21.974Z,29.6
2022-09-11T09:03:24.841Z,29.7
2022-09-11T09:04:27.315Z,29.5
2022-09-11T09:05:29.231Z,29.7
2022-09-11T09:06:31.710Z,29.6
2022-09-11T09:07:34.201Z,30
2022-09-11T09:08:36.676Z,29.7
2022-09-11T09:09:38.926Z,29.6
2022-09-11T09:10:41.099Z,29.5
2022-09-11T09:11:43.583Z,29.8
2022-09-11T09:12:45.779Z,29.8
2022-09-11T09:13:48.254Z,29.6
2022-09-11T09:14:50.854Z,29.6
2022-09-11T09:15:53.353Z,29.8
2022-09-11T09:16:55.812Z,29.7
2022-09-11T09:17:58.023Z,29.7
2022-09-11T09:19:00.518Z,29.9
2022-09-11T09:20:02.704Z,29.9
2022-09-11T09:21:04.917Z,29.8
2022-09-11T09:22:06.840Z,29.6
2022-09-11T09:23:09.345Z,29.6
2022-09-11T09:24:11.815Z,29.7
2022-09-11T09:25:14.330Z,29.7
2022-09-11T09:26:16.534Z,29.8
2022-09-11T09:27:19.011Z,29.7
2022-09-11T09:28:21.492Z,29.7
2022-09-11T09:29:23.976Z,29.8
2022-09-11T09:30:26.204Z,29.6
2022-09-11T09:31:28.431Z,29.7
2022-09-11T09:32:30.653Z,29.7
2022-09-11T09:33:32.700Z,29.8
2022-09-11T09:34:35.313Z,29.7
2022-09-11T09:35:36.940Z,29.6
2022-09-11T09:36:39.139Z,29.7
2022-09-11T09:37:41.612Z,29.5
2022-09-11T09:38:44.103Z,29.8
2022-09-11T09:39:46.317Z,29.5
2022-09-11T09:40:49.099Z,29.5
2022-09-11T09:41:51.566Z,29.8
2022-09-11T09:42:54.032Z,29.9
2022-09-11T09:43:56.248Z,29.7
2022-09-11T09:44:58.721Z,29.7
2022-09-11T09:46:01.254Z,30
2022-09-11T09:47:03.761Z,29.7
2022-09-11T09:48:06.254Z,29.7
2022-09-11T09:49:08.751Z,29.6
2022-09-11T09:50:10.922Z,29.5
2022-09-11T09:51:12.849Z,29.5
2022-09-11T09:52:15.049Z,29.9
2022-09-11T09:53:17.280Z,29.8
2022-09-11T09:54:19.521Z,29.6
2022-09-11T09:55:21.755Z,29.8
2022-09-11T09:56:24.007Z,29.8
2022-09-11T09:57:26.480Z,29.6
2022-09-11T09:58:28.687Z,29.6
2022-09-11T09:59:31.166Z,30
2022-09-11T10:00:32.792Z,29.7
2022-09-11T10:01:35.374Z,29.9
2022-09-11T10:02:37.905Z,29.8
2022-09-11T10:03:40.522Z,29.7
2022-09-11T10:04:43.044Z,29.7
2022-09-11T10:05:45.223Z,29.6
2022-09-11T10:06:47.695Z,29.7
2022-09-11T10:07:49.874Z,29.5
2022-09-11T10:08:52.068Z,29.8
2022-09-11T10:09:54.582Z,29.7
2022-09-11T10:10:56.530Z,29.7
2022-09-11T10:11:58.784Z,29.6
2022-09-11T10:13:17.957Z,29.6
2022-09-11T10:14:10.129Z,29.9
2022-09-11T10:15:11.239Z,29.6
2022-09-11T10:16:13.476Z,29.6
2022-09-11T10:17:15.879Z,29.7
2022-09-11T10:18:18.103Z,29.6
2022-09-11T10:19:20.315Z,29.5
2022-09-11T10:20:22.822Z,29.8
2022-09-11T10:21:25.022Z,29.7
2022-09-11T10:22:27.495Z,29.6
2022-09-11T10:23:29.148Z,29.4
2022-09-11T10:24:31.361Z,29.7
2022-09-11T10:25:33.873Z,29.5
2022-09-11T10:26:36.062Z,29.6
2022-09-11T10:27:38.032Z,29.6
2022-09-11T10:28:40.606Z,29.8
2022-09-11T10:29:43.489Z,29.5
2022-09-11T10:30:45.442Z,29.6
2022-09-11T10:31:48.177Z,29.6
2022-09-11T10:32:50.685Z,29.6
2022-09-11T10:33:52.879Z,29.6
2022-09-11T10:34:55.346Z,29.7
2022-09-11T10:35:57.551Z,29.5
2022-09-11T10:36:59.761Z,29.6
2022-09-11T10:38:02.254Z,29.3
2022-09-11T10:39:04.422Z,29.7
2022-09-11T10:40:06.701Z,29.6
2022-09-11T10:41:08.283Z,29.7
2022-09-11T10:42:10.776Z,29.5
2022-09-11T10:43:13.304Z,29.7
2022-09-11T10:44:15.502Z,29.5
2022-09-11T10:45:17.705Z,29.6
2022-09-11T10:46:19.889Z,29.6
2022-09-11T10:47:22.367Z,29.6
2022-09-11T10:48:24.880Z,29.6
2022-09-11T10:49:27.060Z,29.5
2022-09-11T10:50:29.544Z,29.7
2022-09-11T10:51:31.788Z,29.8
2022-09-11T10:52:34.000Z,29.3
2022-09-11T10:53:36.505Z,29.7
2022-09-11T10:54:38.710Z,29.8
2022-09-11T10:55:41.189Z,29.7
2022-09-11T10:56:43.697Z,29.6
2022-09-11T10:57:45.906Z,29.7
2022-09-11T10:58:48.165Z,29.8
2022-09-11T10:59:53.658Z,29.5
2022-09-11T11:00:56.127Z,29.5
2022-09-11T11:01:58.674Z,29.8
2022-09-11T11:03:01.435Z,29.5
2022-09-11T11:04:03.699Z,29.5
2022-09-11T11:05:11.946Z,29.7
2022-09-11T11:06:14.153Z,29.5
2022-09-11T11:07:16.645Z,29.4
2022-09-11T11:08:19.132Z,29.7
2022-09-11T11:09:21.611Z,29.8
2022-09-11T11:10:30.364Z,29.7
2022-09-11T11:11:32.835Z,29.5
2022-09-11T11:12:34.811Z,29.6
2022-09-11T11:13:36.746Z,29.7
2022-09-11T11:14:38.719Z,29.7
2022-09-11T11:15:40.949Z,29.8
2022-09-11T11:16:43.656Z,29.8
2022-09-11T11:17:45.862Z,29.5
2022-09-11T11:18:48.335Z,29.7
2022-09-11T11:19:50.552Z,29.4
2022-09-11T11:20:52.766Z,29.7
2022-09-11T11:21:55.246Z,29.7
2022-09-11T11:22:57.763Z,29.8
2022-09-11T11:24:00.083Z,29.8
2022-09-11T11:25:02.042Z,29.6
2022-09-11T11:26:04.528Z,29.7
2022-09-11T11:27:06.471Z,29.6
2022-09-11T11:28:08.980Z,29.9
2022-09-11T11:29:11.473Z,29.6
2022-09-11T11:30:13.714Z,29.7
2022-09-11T11:31:16.211Z,29.9
2022-09-11T11:32:18.971Z,29.7
2022-09-11T11:33:21.161Z,29.6
2022-09-11T11:34:22.806Z,29.5
2022-09-11T11:35:25.316Z,29.7
2022-09-11T11:36:27.795Z,29.7
2022-09-11T11:37:30.274Z,29.8
2022-09-11T11:38:32.773Z,29.6
2022-09-11T11:39:35.361Z,29.5
2022-09-11T11:40:37.644Z,29.5
2022-09-11T11:41:40.126Z,29.6
2022-09-11T11:42:42.304Z,29.6
2022-09-11T11:43:44.819Z,29.5
2022-09-11T11:44:46.992Z,29.5
2022-09-11T11:45:49.540Z,29.6
2022-09-11T11:46:52.287Z,29.6
2022-09-11T11:47:54.467Z,29.6
2022-09-11T11:48:56.949Z,29.7
2022-09-11T11:49:59.459Z,29.8
2022-09-11T11:51:01.380Z,29.5
2022-09-11T11:52:03.590Z,29.7
2022-09-11T11:53:05.502Z,29.5
2022-09-11T11:54:07.439Z,29.6
2022-09-11T11:55:09.653Z,29.7
2022-09-11T11:56:12.127Z,29.4
2022-09-11T11:57:14.058Z,29.7
2022-09-11T11:58:16.259Z,29.5
2022-09-11T11:59:18.469Z,29.5
2022-09-11T12:00:20.794Z,29.6
2022-09-11T12:01:23.323Z,29.7
2022-09-11T12:02:25.796Z,29.7
2022-09-11T12:03:28.050Z,29.4
2022-09-11T12:04:30.750Z,29.5
2022-09-11T12:05:33.235Z,29.5
2022-09-11T12:06:35.181Z,29.7
2022-09-11T12:07:37.658Z,29.9
2022-09-11T12:08:39.601Z,29.8
2022-09-11T12:09:42.220Z,29.5
2022-09-11T12:10:44.447Z,29.5
2022-09-11T12:11:46.928Z,29.6
2022-09-11T12:12:49.403Z,29.5
2022-09-11T12:13:51.339Z,29.6
2022-09-11T12:14:53.555Z,29.7
2022-09-11T12:15:55.772Z,29.8
2022-09-11T12:16:58.697Z,29.6
2022-09-11T12:18:00.893Z,29.7
2022-09-11T12:19:03.363Z,29.7
2022-09-11T12:20:05.857Z,29.6
2022-09-11T12:21:08.326Z,29.5
2022-09-11T12:22:10.828Z,29.7
2022-09-11T12:23:12.754Z,29.5
2022-09-11T12:24:14.958Z,29.7
2022-09-11T12:25:17.455Z,29.6
2022-09-11T12:26:19.386Z,29.7
2022-09-11T12:27:21.294Z,29.7
2022-09-11T12:28:23.496Z,29.7
2022-09-11T12:29:25.706Z,29.8
2022-09-11T12:30:27.937Z,29.6
2022-09-11T12:31:29.884Z,29.6
2022-09-11T12:32:32.599Z,29.6
2022-09-11T12:33:35.081Z,29.6
2022-09-11T12:34:37.279Z,29.7
2022-09-11T12:35:39.745Z,29.8
2022-09-11T12:36:42.251Z,29.7
2022-09-11T12:37:44.463Z,29.6
2022-09-11T12:38:46.123Z,29.8
2022-09-11T12:39:48.627Z,29.9
2022-09-11T12:40:51.362Z,29.7
2022-09-11T12:41:53.830Z,29.7
2022-09-11T12:42:56.320Z,29.7
2022-09-11T12:43:58.788Z,29.8
2022-09-11T12:45:01.279Z,29.6
2022-09-11T12:46:03.259Z,29.5
2022-09-11T12:47:05.462Z,29.5
2022-09-11T12:48:07.740Z,29.8
2022-09-11T12:49:23.742Z,29.6
2022-09-11T12:50:14.914Z,29.5
2022-09-11T12:51:17.377Z,29.5
2022-09-11T12:52:19.584Z,29.9
2022-09-11T12:53:22.072Z,29.7
2022-09-11T12:54:24.290Z,29.7
2022-09-11T12:55:26.489Z,29.7
2022-09-11T12:56:28.980Z,29.7
2022-09-11T12:57:31.470Z,29.7
2022-09-11T12:58:34.098Z,29.6
2022-09-11T12:59:36.420Z,29.8
2022-09-11T13:00:38.344Z,29.6
2022-09-11T13:01:40.622Z,29.9
2022-09-11T13:02:43.313Z,29.8
2022-09-11T13:03:45.663Z,29.5
2022-09-11T13:04:48.135Z,29.7
2022-09-11T13:05:50.039Z,29.7
2022-09-11T13:06:52.533Z,29.7
2022-09-11T13:07:54.447Z,29.7
2022-09-11T13:08:56.935Z,29.6
2022-09-11T13:09:59.109Z,29.9
2022-09-11T13:11:01.317Z,29.7
2022-09-11T13:12:03.254Z,29.9
2022-09-11T13:13:05.167Z,29.4
2022-09-11T13:14:07.357Z,29.6
2022-09-11T13:15:09.850Z,29.6
2022-09-11T13:16:12.066Z,29.6
2022-09-11T13:17:14.516Z,29.7
2022-09-11T13:18:16.990Z,29.8
2022-09-11T13:19:19.239Z,29.7
2022-09-11T13:20:21.436Z,29.7
2022-09-11T13:21:26.439Z,29.4
2022-09-11T13:22:28.928Z,29.6
2022-09-11T13:23:31.402Z,29.7
2022-09-11T13:24:33.903Z,29.7
2022-09-11T13:25:36.374Z,29.5
2022-09-11T13:26:38.858Z,29.7
2022-09-11T13:27:41.353Z,29.6
2022-09-11T13:28:43.824Z,29.7
2022-09-11T13:29:46.033Z,29.6
2022-09-11T13:30:48.551Z,29.6
2022-09-11T13:31:51.256Z,29.8
2022-09-11T13:32:53.486Z,29.7
2022-09-11T13:33:55.695Z,29.9
2022-09-11T13:34:57.940Z,29.7
2022-09-11T13:36:00.162Z,29.4
2022-09-11T13:37:02.630Z,29.6
2022-09-11T13:38:04.842Z,29.5
2022-09-11T13:39:07.313Z,29.7
2022-09-11T13:40:09.725Z,29.6
2022-09-11T13:41:12.803Z,29.5
2022-09-11T13:42:15.002Z,29.6
2022-09-11T13:43:17.498Z,29.5
2022-09-11T13:44:19.446Z,29.8
2022-09-11T13:45:21.932Z,29.6
2022-09-11T13:46:24.534Z,29.8
2022-09-11T13:47:26.457Z,29.4
2022-09-11T13:48:28.954Z,29.5
2022-09-11T13:49:30.887Z,29.6
2022-09-11T13:50:32.865Z,29.8
2022-09-11T13:51:35.052Z,29.5
2022-09-11T13:52:37.527Z,29.6
2022-09-11T13:53:39.447Z,29.6
2022-09-11T13:54:41.561Z,29.6
2022-09-11T13:55:43.503Z,29.7